createdAt,value
2023-05-10T00:00:11.150Z,16.43
2023-05-10T00:02:37.560Z,16.07
2023-05-10T00:05:04.188Z,16.10
2023-05-10T00:07:30.636Z,16.10
2023-05-10T00:09:57.010Z,16.13
2023-05-10T00:12:23.386Z,16.08
2023-05-10T00:14:50.011Z,16.22
2023-05-10T00:17:16.391Z,16.31
2023-05-10T00:19:42.791Z,16.22
2023-05-10T00:22:09.346Z,16.33
2023-05-10T00:24:35.710Z,16.33
2023-05-10T00:27:02.187Z,16.36
2023-05-10T00:29:28.592Z,16.42
2023-05-10T00:31:55.055Z,16.58
2023-05-10T00:34:21.452Z,16.51
2023-05-10T00:36:47.851Z,16.53
2023-05-10T00:39:14.282Z,16.30
2023-05-10T00:41:40.662Z,16.27
2023-05-10T00:44:07.086Z,16.39
2023-05-10T00:46:33.603Z,16.54
2023-05-10T00:49:00.051Z,16.47
2023-05-10T00:51:26.525Z,16.34
2023-05-10T00:53:52.920Z,16.11
2023-05-10T00:56:19.291Z,15.85
2023-05-10T00:58:45.652Z,15.93
2023-05-10T01:01:12.082Z,16.04
2023-05-10T01:03:38.585Z,15.96
2023-05-10T01:06:04.963Z,15.83
2023-05-10T01:08:31.353Z,15.83
2023-05-10T01:10:57.819Z,15.85
2023-05-10T01:13:24.297Z,15.65
2023-05-10T01:15:50.756Z,15.58
2023-05-10T01:18:17.244Z,15.72
2023-05-10T01:20:43.616Z,16.19
2023-05-10T01:23:10.044Z,15.84
2023-05-10T01:25:36.765Z,15.73
2023-05-10T01:28:03.131Z,15.59
2023-05-10T01:30:29.500Z,15.64
2023-05-10T01:32:55.936Z,15.35
2023-05-10T01:35:22.343Z,15.50
2023-05-10T01:37:48.712Z,15.73
2023-05-10T01:40:15.226Z,15.85
2023-05-10T01:42:41.677Z,15.81
2023-05-10T01:45:08.096Z,15.68
2023-05-10T01:47:34.536Z,15.50
2023-05-10T01:50:00.943Z,15.46
2023-05-10T01:52:27.367Z,15.51
2023-05-10T01:54:53.798Z,15.54
2023-05-10T01:57:20.213Z,15.43
2023-05-10T01:59:46.684Z,15.62
2023-05-10T02:02:13.274Z,15.78
2023-05-10T02:04:39.735Z,15.39
2023-05-10T02:07:06.144Z,15.43
2023-05-10T02:09:32.627Z,15.39
2023-05-10T02:11:59.038Z,15.65
2023-05-10T02:14:25.468Z,15.59
2023-05-10T02:16:51.885Z,16.03
2023-05-10T02:19:18.385Z,15.88
2023-05-10T02:21:44.777Z,15.55
2023-05-10T02:24:11.166Z,15.54
2023-05-10T02:26:37.557Z,15.35
2023-05-10T02:29:03.935Z,15.36
2023-05-10T02:31:30.389Z,15.43
2023-05-10T02:33:56.818Z,15.27
2023-05-10T02:36:23.207Z,15.57
2023-05-10T02:38:49.582Z,15.38
2023-05-10T02:41:16.165Z,15.25
2023-05-10T02:43:42.555Z,15.05
2023-05-10T02:46:09.066Z,15.11
2023-05-10T02:48:35.454Z,15.07
2023-05-10T02:51:01.829Z,14.88
2023-05-10T02:53:28.212Z,14.61
2023-05-10T02:55:54.570Z,14.53
2023-05-10T02:58:20.948Z,14.44
2023-05-10T03:00:47.317Z,14.54
2023-05-10T03:03:13.686Z,14.26
2023-05-10T03:05:40.144Z,14.32
2023-05-10T03:08:06.537Z,14.59
2023-05-10T03:10:32.924Z,14.63
2023-05-10T03:12:59.326Z,14.98
2023-05-10T03:15:25.693Z,15.27
2023-05-10T03:17:52.168Z,15.17
2023-05-10T03:20:18.798Z,14.93
2023-05-10T03:22:45.377Z,15.18
2023-05-10T03:25:11.746Z,15.17
2023-05-10T03:27:38.103Z,15.07
2023-05-10T03:30:04.532Z,15.23
2023-05-10T03:32:30.924Z,15.13
2023-05-10T03:34:57.311Z,15.25
2023-05-10T03:37:23.718Z,15.30
2023-05-10T03:39:50.141Z,15.67
2023-05-10T03:42:16.531Z,15.77
2023-05-10T03:44:42.961Z,15.56
2023-05-10T03:47:09.434Z,15.37
2023-05-10T03:49:35.893Z,15.30
2023-05-10T03:52:02.254Z,15.29
2023-05-10T03:54:28.629Z,15.23
2023-05-10T03:56:55.047Z,15.17
2023-05-10T03:59:21.452Z,15.04
2023-05-10T04:01:47.858Z,15.20
2023-05-10T04:04:14.328Z,15.14
2023-05-10T04:06:40.721Z,15.55
2023-05-10T04:09:07.219Z,15.62
2023-05-10T04:11:33.591Z,15.80
2023-05-10T04:13:59.983Z,15.76
2023-05-10T04:16:26.385Z,15.68
2023-05-10T04:18:52.826Z,15.24
2023-05-10T04:21:19.496Z,15.19
2023-05-10T04:23:45.925Z,15.34
2023-05-10T04:26:12.358Z,15.19
2023-05-10T04:28:38.908Z,14.97
2023-05-10T04:31:05.430Z,15.00
2023-05-10T04:33:31.875Z,15.21
2023-05-10T04:35:58.288Z,15.33
2023-05-10T04:38:24.711Z,15.27
2023-05-10T04:40:51.147Z,15.41
2023-05-10T04:43:17.650Z,15.80
2023-05-10T04:45:44.105Z,15.86
2023-05-10T04:48:10.488Z,16.10
2023-05-10T04:50:36.892Z,15.63
2023-05-10T04:53:03.281Z,16.02
2023-05-10T04:55:29.647Z,16.22
2023-05-10T04:57:56.057Z,16.23
2023-05-10T05:00:22.510Z,16.13
2023-05-10T05:02:49.052Z,16.13
2023-05-10T05:05:15.565Z,15.89
2023-05-10T05:07:41.974Z,15.77
2023-05-10T05:10:08.408Z,15.86
2023-05-10T05:12:34.819Z,15.74
2023-05-10T05:15:01.189Z,15.80
2023-05-10T05:17:27.630Z,15.75
2023-05-10T05:19:54.039Z,15.70
2023-05-10T05:22:20.551Z,15.69
2023-05-10T05:24:46.985Z,16.05
2023-05-10T05:27:13.381Z,16.24
2023-05-10T05:29:39.752Z,16.04
2023-05-10T05:32:06.286Z,16.41
2023-05-10T05:34:32.750Z,16.70
2023-05-10T05:36:59.170Z,16.68
2023-05-10T05:39:25.805Z,16.51
2023-05-10T05:41:52.177Z,16.27
2023-05-10T05:44:18.593Z,16.01
2023-05-10T05:46:44.987Z,15.86
2023-05-10T05:49:11.384Z,15.93
2023-05-10T05:51:37.783Z,15.68
2023-05-10T05:54:05.419Z,15.62
2023-05-10T05:56:31.850Z,15.70
2023-05-10T05:58:58.310Z,15.63
2023-05-10T06:01:24.700Z,15.76
2023-05-10T06:03:53.174Z,15.71
2023-05-10T06:06:19.893Z,15.66
2023-05-10T06:08:46.269Z,15.81
2023-05-10T06:11:12.718Z,15.81
2023-05-10T06:13:39.145Z,15.68
2023-05-10T06:16:05.581Z,15.84
2023-05-10T06:18:32.163Z,15.90
2023-05-10T06:20:58.591Z,15.84
2023-05-10T06:23:24.989Z,15.84
2023-05-10T06:25:51.389Z,15.84
2023-05-10T06:28:17.910Z,16.05
2023-05-10T06:30:44.268Z,15.90
2023-05-10T06:33:10.688Z,16.52
2023-05-10T06:35:37.093Z,16.42
2023-05-10T06:38:03.551Z,16.36
2023-05-10T06:40:29.973Z,16.14
2023-05-10T06:42:56.374Z,16.10
2023-05-10T06:45:22.795Z,16.22
2023-05-10T06:47:49.222Z,16.21
2023-05-10T06:50:15.670Z,16.59
2023-05-10T06:52:42.078Z,16.49
2023-05-10T06:55:08.489Z,16.53
2023-05-10T06:57:35.019Z,16.60
2023-05-10T07:00:01.535Z,16.40
2023-05-10T07:02:28.187Z,16.39
2023-05-10T07:04:54.706Z,16.34
2023-05-10T07:07:21.314Z,16.05
2023-05-10T07:09:47.729Z,16.01
2023-05-10T07:12:15.524Z,16.29
2023-05-10T07:14:42.524Z,16.23
2023-05-10T07:17:08.985Z,16.52
2023-05-10T07:19:35.495Z,16.66
2023-05-10T07:22:02.016Z,16.95
2023-05-10T07:24:28.665Z,17.36
2023-05-10T07:26:55.180Z,17.67
2023-05-10T07:29:21.697Z,18.02
2023-05-10T07:31:48.191Z,18.18
2023-05-10T07:34:14.676Z,18.07
2023-05-10T07:36:41.065Z,17.33
2023-05-10T07:39:07.464Z,17.18
2023-05-10T07:41:34.064Z,17.20
2023-05-10T07:44:02.477Z,17.28
2023-05-10T07:46:28.994Z,17.36
2023-05-10T07:48:55.560Z,17.88
2023-05-10T07:51:22.187Z,17.65
2023-05-10T07:53:48.668Z,17.42
2023-05-10T07:56:15.083Z,17.64
2023-05-10T07:58:41.478Z,17.97
2023-05-10T08:01:07.903Z,18.24
2023-05-10T08:03:34.519Z,18.26
2023-05-10T08:06:01.008Z,18.27
2023-05-10T08:08:27.500Z,17.86
2023-05-10T08:10:53.910Z,17.75
2023-05-10T08:13:23.263Z,17.92
2023-05-10T08:15:49.731Z,18.10
2023-05-10T08:18:16.201Z,18.00
2023-05-10T08:20:42.727Z,18.27
2023-05-10T08:23:09.142Z,18.45
2023-05-10T08:25:35.533Z,18.58
2023-05-10T08:28:02.216Z,18.73
2023-05-10T08:30:28.624Z,18.84
2023-05-10T08:32:55.044Z,18.90
2023-05-10T08:35:21.553Z,18.68
2023-05-10T08:37:48.009Z,18.76
2023-05-10T08:40:14.579Z,18.75
2023-05-10T08:42:41.174Z,18.72
2023-05-10T08:45:07.690Z,18.81
2023-05-10T08:47:34.245Z,18.87
2023-05-10T08:50:00.796Z,18.83
2023-05-10T08:52:27.234Z,19.05
2023-05-10T08:54:53.637Z,18.57
2023-05-10T08:57:20.071Z,18.97
2023-05-10T08:59:46.660Z,19.11
2023-05-10T09:02:13.244Z,19.67
2023-05-10T09:04:39.855Z,19.62
2023-05-10T09:07:06.288Z,19.51
2023-05-10T09:09:32.671Z,19.23
2023-05-10T09:11:59.060Z,19.67
2023-05-10T09:14:25.460Z,19.45
2023-05-10T09:16:52.061Z,18.99
2023-05-10T09:19:18.474Z,18.24
2023-05-10T09:21:44.847Z,17.83
2023-05-10T09:24:11.263Z,18.03
2023-05-10T09:26:37.733Z,17.42
2023-05-10T09:29:04.184Z,17.66
2023-05-10T09:31:30.719Z,17.88
2023-05-10T09:33:57.301Z,18.01
2023-05-10T09:36:23.696Z,18.23
2023-05-10T09:38:50.160Z,18.86
2023-05-10T09:41:16.572Z,17.72
2023-05-10T09:43:42.989Z,17.44
2023-05-10T09:46:09.447Z,17.28
2023-05-10T09:48:35.838Z,17.41
2023-05-10T09:51:02.257Z,17.66
2023-05-10T09:53:28.653Z,18.27
2023-05-10T09:55:55.090Z,17.73
2023-05-10T09:58:21.588Z,18.02
2023-05-10T10:00:50.774Z,18.26
2023-05-10T10:03:17.212Z,17.58
2023-05-10T10:05:43.668Z,17.67
2023-05-10T10:08:10.134Z,18.07
2023-05-10T10:10:36.674Z,18.58
2023-05-10T10:13:03.094Z,18.86
2023-05-10T10:15:29.521Z,18.93
2023-05-10T10:17:56.146Z,19.08
2023-05-10T10:20:22.600Z,19.57
2023-05-10T10:22:48.997Z,19.95
2023-05-10T10:25:15.556Z,19.92
2023-05-10T10:27:42.169Z,19.75
2023-05-10T10:30:08.617Z,19.92
2023-05-10T10:32:35.041Z,19.73
2023-05-10T10:35:01.477Z,19.26
2023-05-10T10:37:27.910Z,19.16
2023-05-10T10:39:54.283Z,19.71
2023-05-10T10:42:20.705Z,19.17
2023-05-10T10:44:47.096Z,19.06
2023-05-10T10:47:13.496Z,19.05
2023-05-10T10:49:39.876Z,18.47
2023-05-10T10:52:06.244Z,18.55
2023-05-10T10:54:32.655Z,17.80
2023-05-10T10:56:59.120Z,17.76
2023-05-10T10:59:25.524Z,17.06
2023-05-10T11:01:51.906Z,17.85
2023-05-10T11:04:18.339Z,17.65
2023-05-10T11:06:44.817Z,18.34
2023-05-10T11:09:11.178Z,17.89
2023-05-10T11:11:37.600Z,18.68
2023-05-10T11:14:04.001Z,18.11
2023-05-10T11:16:30.526Z,17.60
2023-05-10T11:18:56.941Z,17.96
2023-05-10T11:21:23.607Z,18.03
2023-05-10T11:23:49.987Z,17.99
2023-05-10T11:26:16.363Z,18.75
2023-05-10T11:28:42.848Z,19.28
2023-05-10T11:31:09.283Z,19.41
2023-05-10T11:33:35.666Z,18.42
2023-05-10T11:36:02.211Z,19.14
2023-05-10T11:38:28.578Z,19.52
2023-05-10T11:40:54.988Z,20.08
2023-05-10T11:43:21.396Z,19.81
2023-05-10T11:45:47.777Z,20.04
2023-05-10T11:48:14.269Z,19.92
2023-05-10T11:50:40.763Z,19.79
2023-05-10T11:53:07.149Z,18.82
2023-05-10T11:55:33.519Z,19.19
2023-05-10T11:58:00.087Z,18.78
2023-05-10T12:00:26.600Z,18.82
2023-05-10T12:02:53.079Z,18.80
2023-05-10T12:05:19.579Z,19.02
2023-05-10T12:07:46.124Z,18.98
2023-05-10T12:10:12.926Z,18.94
2023-05-10T12:12:39.408Z,19.04
2023-05-10T12:15:05.851Z,18.35
2023-05-10T12:17:32.347Z,18.27
2023-05-10T12:19:58.753Z,17.98
2023-05-10T12:22:25.222Z,18.37
2023-05-10T12:24:51.667Z,18.82
2023-05-10T12:27:18.147Z,18.09
2023-05-10T12:29:44.524Z,19.14
2023-05-10T12:32:11.220Z,19.83
2023-05-10T12:34:37.693Z,19.95
2023-05-10T12:37:04.136Z,20.25
2023-05-10T12:39:30.875Z,19.54
2023-05-10T12:41:57.405Z,20.06
2023-05-10T12:44:26.834Z,19.72
2023-05-10T12:46:53.256Z,19.46
2023-05-10T12:49:19.690Z,18.91
2023-05-10T12:51:46.086Z,18.32
2023-05-10T12:54:12.499Z,18.47
2023-05-10T12:56:38.875Z,18.53
2023-05-10T12:59:05.294Z,18.98
2023-05-10T13:01:31.717Z,17.84
2023-05-10T13:03:58.099Z,19.00
2023-05-10T13:06:24.495Z,19.76
2023-05-10T13:08:50.891Z,20.18
2023-05-10T13:11:17.265Z,20.32
2023-05-10T13:13:43.649Z,20.43
2023-05-10T13:16:10.150Z,19.90
2023-05-10T13:18:36.596Z,20.12
2023-05-10T13:21:03.155Z,19.91
2023-05-10T13:23:29.571Z,19.41
2023-05-10T13:25:55.989Z,18.99
2023-05-10T13:28:22.523Z,19.43
2023-05-10T13:30:48.978Z,20.23
2023-05-10T13:33:15.413Z,20.13
2023-05-10T13:35:42.074Z,19.87
2023-05-10T13:38:08.485Z,18.60
2023-05-10T13:40:34.881Z,19.16
2023-05-10T13:43:01.351Z,18.67
2023-05-10T13:45:27.797Z,18.63
2023-05-10T13:47:54.195Z,19.18
2023-05-10T13:50:20.594Z,18.95
2023-05-10T13:52:47.010Z,19.47
2023-05-10T13:55:13.440Z,18.75
2023-05-10T13:57:39.832Z,19.80
2023-05-10T14:00:06.501Z,20.37
2023-05-10T14:02:33.003Z,20.08
2023-05-10T14:04:59.468Z,20.06
2023-05-10T14:07:25.950Z,19.86
2023-05-10T14:09:52.326Z,20.60
2023-05-10T14:12:18.826Z,20.67
2023-05-10T14:14:45.261Z,20.27
2023-05-10T14:17:12.538Z,20.98
2023-05-10T14:19:39.159Z,21.03
2023-05-10T14:22:05.590Z,20.97
2023-05-10T14:24:31.999Z,20.41
2023-05-10T14:26:58.384Z,20.34
2023-05-10T14:29:24.783Z,19.86
2023-05-10T14:31:51.272Z,20.40
2023-05-10T14:36:44.109Z,23.53
2023-05-10T14:39:10.528Z,22.90
2023-05-10T14:41:37.082Z,21.61
2023-05-10T14:44:03.486Z,20.52
2023-05-10T14:46:30.075Z,21.85
2023-05-10T14:48:56.580Z,24.84
2023-05-10T14:51:23.018Z,25.53
2023-05-10T14:53:49.445Z,26.69
2023-05-10T14:56:15.835Z,24.40
2023-05-10T14:58:42.309Z,26.60
2023-05-10T15:01:08.760Z,28.97
2023-05-10T15:03:35.731Z,29.78
2023-05-10T15:06:02.690Z,29.17
2023-05-10T15:08:29.130Z,28.45
2023-05-10T15:10:55.582Z,29.77
2023-05-10T15:13:22.091Z,28.54
2023-05-10T15:15:48.559Z,27.37
2023-05-10T15:18:14.978Z,24.78
2023-05-10T15:20:41.413Z,26.72
2023-05-10T15:23:07.871Z,26.41
2023-05-10T15:25:34.399Z,27.76
2023-05-10T15:28:00.800Z,28.44
2023-05-10T15:30:27.159Z,28.99
2023-05-10T15:32:53.740Z,28.36
2023-05-10T15:35:20.220Z,29.94
2023-05-10T15:37:46.638Z,28.10
2023-05-10T15:40:13.086Z,29.97
2023-05-10T15:42:39.450Z,30.94
2023-05-10T15:45:05.821Z,30.87
2023-05-10T15:47:32.283Z,30.42
2023-05-10T15:49:58.732Z,26.99
2023-05-10T15:52:25.260Z,27.72
2023-05-10T15:54:51.671Z,27.29
2023-05-10T15:57:18.035Z,27.09
2023-05-10T15:59:44.669Z,28.81
2023-05-10T16:02:11.098Z,29.54
2023-05-10T16:04:37.583Z,29.49
2023-05-10T16:07:04.005Z,29.38
2023-05-10T16:09:30.413Z,28.38
2023-05-10T16:11:59.898Z,27.15
2023-05-10T16:14:26.399Z,25.58
2023-05-10T16:16:52.926Z,25.88
2023-05-10T16:19:19.497Z,28.12
2023-05-10T16:21:45.978Z,28.48
2023-05-10T16:24:12.603Z,29.37
2023-05-10T16:26:39.002Z,30.03
2023-05-10T16:29:05.468Z,28.57
2023-05-10T16:31:32.132Z,26.29
2023-05-10T16:33:58.846Z,24.42
2023-05-10T16:36:25.293Z,24.63
2023-05-10T16:38:51.682Z,23.80
2023-05-10T16:41:18.429Z,23.49
2023-05-10T16:43:44.841Z,22.66
2023-05-10T16:46:11.309Z,22.37
2023-05-10T16:48:37.710Z,22.22
2023-05-10T16:51:04.149Z,21.93
2023-05-10T16:53:30.538Z,21.81
2023-05-10T16:55:57.084Z,21.14
2023-05-10T16:58:23.537Z,20.51
2023-05-10T17:00:49.996Z,20.77
2023-05-10T17:03:16.978Z,20.93
2023-05-10T17:05:43.433Z,20.74
2023-05-10T17:08:09.864Z,20.09
2023-05-10T17:10:36.521Z,20.00
2023-05-10T17:13:02.978Z,19.85
2023-05-10T17:15:29.424Z,19.38
2023-05-10T17:17:55.912Z,19.69
2023-05-10T17:20:22.431Z,19.86
2023-05-10T17:22:49.107Z,19.92
2023-05-10T17:25:15.737Z,19.83
2023-05-10T17:27:42.325Z,19.98
2023-05-10T17:30:08.927Z,20.16
2023-05-10T17:32:35.354Z,20.06
2023-05-10T17:35:01.774Z,20.14
2023-05-10T17:37:28.246Z,19.41
2023-05-10T17:39:54.706Z,18.93
2023-05-10T17:42:21.097Z,19.09
2023-05-10T17:44:47.543Z,19.47
2023-05-10T17:47:13.964Z,19.25
2023-05-10T17:49:40.391Z,19.39
2023-05-10T17:52:06.807Z,19.18
2023-05-10T17:54:33.209Z,19.64
2023-05-10T17:56:59.638Z,19.73
2023-05-10T17:59:26.113Z,19.54
2023-05-10T18:01:52.573Z,19.71
2023-05-10T18:04:19.009Z,19.79
2023-05-10T18:06:45.512Z,19.59
2023-05-10T18:09:11.927Z,19.55
2023-05-10T18:11:38.573Z,19.50
2023-05-10T18:14:05.040Z,19.37
2023-05-10T18:16:31.541Z,19.28
2023-05-10T18:18:58.163Z,18.97
2023-05-10T18:21:24.632Z,18.79
2023-05-10T18:23:51.147Z,18.97
2023-05-10T18:26:17.622Z,18.92
2023-05-10T18:28:44.049Z,19.11
2023-05-10T18:31:10.540Z,18.64
2023-05-10T18:33:37.012Z,18.28
2023-05-10T18:36:03.428Z,18.08
2023-05-10T18:38:29.803Z,18.05
2023-05-10T18:40:56.210Z,17.52
2023-05-10T18:43:22.596Z,17.65
2023-05-10T18:45:49.044Z,17.50
2023-05-10T18:48:15.471Z,17.62
2023-05-10T18:50:41.930Z,17.67
2023-05-10T18:53:08.378Z,17.51
2023-05-10T18:55:34.796Z,17.69
2023-05-10T18:58:01.196Z,17.57
2023-05-10T19:00:27.643Z,17.72
2023-05-10T19:02:54.060Z,17.92
2023-05-10T19:05:20.623Z,17.98
2023-05-10T19:07:47.197Z,17.78
2023-05-10T19:10:13.578Z,17.59
2023-05-10T19:12:40.085Z,17.57
2023-05-10T19:15:06.541Z,17.38
2023-05-10T19:17:35.673Z,17.72
2023-05-10T19:20:03.983Z,17.55
2023-05-10T19:24:59.953Z,17.11
2023-05-10T19:27:26.377Z,17.00
2023-05-10T19:29:52.774Z,16.79
2023-05-10T19:32:19.184Z,16.94
2023-05-10T19:34:45.619Z,16.92
2023-05-10T19:37:12.119Z,16.77
2023-05-10T19:39:38.498Z,16.70
2023-05-10T19:42:04.998Z,16.57
2023-05-10T19:44:31.641Z,16.79
2023-05-10T19:46:58.064Z,16.79
2023-05-10T19:49:24.781Z,16.73
2023-05-10T19:51:51.305Z,16.68
2023-05-10T19:54:17.757Z,16.76
2023-05-10T19:56:44.224Z,16.73
2023-05-10T19:59:10.699Z,16.65
2023-05-10T20:01:37.264Z,16.46
2023-05-10T20:04:03.841Z,16.47
2023-05-10T20:06:30.365Z,16.50
2023-05-10T20:08:56.839Z,16.64
2023-05-10T20:11:23.302Z,16.46
2023-05-10T20:13:49.764Z,16.59
2023-05-10T20:16:16.299Z,16.67
2023-05-10T20:18:42.775Z,16.69
2023-05-10T20:21:09.186Z,16.68
2023-05-10T20:23:35.622Z,16.49
2023-05-10T20:26:02.090Z,16.54
2023-05-10T20:28:28.515Z,16.74
2023-05-10T20:30:54.924Z,16.65
2023-05-10T20:33:21.387Z,16.67
2023-05-10T20:35:47.831Z,16.67
2023-05-10T20:38:14.282Z,16.58
2023-05-10T20:40:40.720Z,16.62
2023-05-10T20:43:07.100Z,16.63
2023-05-10T20:45:33.552Z,16.85
2023-05-10T20:48:00.023Z,16.80
2023-05-10T20:50:26.548Z,16.88
2023-05-10T20:52:52.941Z,17.03
2023-05-10T20:55:19.392Z,17.07
2023-05-10T20:57:45.779Z,16.94
2023-05-10T21:00:12.176Z,16.94
2023-05-10T21:02:38.676Z,17.09
2023-05-10T21:05:05.154Z,17.16
2023-05-10T21:07:31.636Z,17.41
2023-05-10T21:09:58.081Z,17.52
2023-05-10T21:12:24.516Z,17.56
2023-05-10T21:14:50.939Z,17.51
2023-05-10T21:17:19.904Z,17.45
2023-05-10T21:19:46.738Z,17.45
2023-05-10T21:22:13.130Z,17.10
2023-05-10T21:24:39.538Z,16.93
2023-05-10T21:27:06.019Z,17.17
2023-05-10T21:29:32.400Z,17.36
2023-05-10T21:31:58.884Z,17.40
2023-05-10T21:34:25.882Z,17.33
2023-05-10T21:36:52.553Z,17.25
2023-05-10T21:39:18.962Z,17.08
2023-05-10T21:41:45.534Z,16.86
2023-05-10T21:44:11.930Z,16.90
2023-05-10T21:46:38.360Z,17.16
2023-05-10T21:49:04.776Z,17.21
2023-05-10T21:51:31.162Z,17.36
2023-05-10T21:53:57.674Z,17.39
2023-05-10T21:56:24.061Z,17.09
2023-05-10T21:58:50.457Z,16.83
2023-05-10T22:01:16.997Z,16.52
2023-05-10T22:03:43.508Z,16.37
2023-05-10T22:06:10.104Z,16.30
2023-05-10T22:08:36.534Z,16.09
2023-05-10T22:11:02.987Z,16.01
2023-05-10T22:13:29.398Z,16.04
2023-05-10T22:15:55.824Z,16.04
2023-05-10T22:18:22.379Z,15.98
2023-05-10T22:20:48.867Z,16.11
2023-05-10T22:23:15.261Z,16.02
2023-05-10T22:25:41.651Z,16.04
2023-05-10T22:28:08.089Z,16.08
2023-05-10T22:30:34.485Z,16.13
2023-05-10T22:33:00.895Z,15.95
2023-05-10T22:35:27.382Z,15.82
2023-05-10T22:37:53.757Z,15.95
2023-05-10T22:40:20.168Z,15.84
2023-05-10T22:42:46.570Z,15.92
2023-05-10T22:45:12.971Z,16.00
2023-05-10T22:47:39.389Z,16.23
2023-05-10T22:50:05.854Z,15.98
2023-05-10T22:52:32.274Z,15.99
2023-05-10T22:54:58.728Z,15.87
2023-05-10T22:57:25.077Z,15.83
2023-05-10T22:59:51.453Z,15.85
2023-05-10T23:02:17.850Z,15.89
2023-05-10T23:04:44.593Z,15.92
2023-05-10T23:07:10.960Z,15.93
2023-05-10T23:09:37.351Z,16.18
2023-05-10T23:12:03.753Z,16.14
2023-05-10T23:14:30.206Z,16.18
2023-05-10T23:16:56.588Z,16.26
2023-05-10T23:19:22.977Z,16.20
2023-05-10T23:21:49.416Z,16.02
2023-05-10T23:24:15.841Z,15.92
2023-05-10T23:26:42.278Z,15.75
2023-05-10T23:29:08.682Z,15.60
2023-05-10T23:31:35.113Z,15.58
2023-05-10T23:34:01.522Z,15.65
2023-05-10T23:36:27.919Z,15.82
2023-05-10T23:38:54.304Z,16.01
2023-05-10T23:41:20.738Z,15.86
2023-05-10T23:43:47.111Z,15.52
2023-05-10T23:46:13.556Z,15.69
2023-05-10T23:48:39.960Z,15.58
2023-05-10T23:51:06.383Z,15.68
2023-05-10T23:53:32.786Z,15.33
2023-05-10T23:55:59.163Z,15.13
2023-05-10T23:58:25.536Z,15.07
